DADOS DO TEMPO

ONTEM
Time Temp. Dewp. Hum. Direção Velocidade Wind gust Bar.
00:05 11.6 11 96 225 0.8 1.7 1015.1
00:14 11.6 11 96 247 0.8 1.7 1015.2
00:24 11.6 11 96 258 0.8 2.5 1015.1
00:35 11.5 10.9 96 304 1.1 2.8 1015.2
00:45 11.5 11 97 270 0.8 2.5 1015.2
00:55 11.4 10.8 96 225 0.8 1.7 1015.1
01:05 11.4 10.8 96 217 0.8 1.7 1015.1
01:15 11.4 10.8 96 225 0.8 1.9 1015.1
01:25 11.3 10.7 96 235 0.8 1.7 1015.1
01:35 11.3 10.7 96 232 0.8 1.9 1015
01:46 11.3 10.7 96 257 1.1 1.7 1015
01:55 11.2 10.4 95 270 1.1 2.2 1014.9
02:05 11.2 10.6 96 279 1.4 2.5 1015
02:11 11.2 10.6 96 289 1.4 2.5 1015
02:26 11.2 10.6 96 270 1.1 2.2 1014.9
02:34 11.2 10.6 96 270 1.1 2.5 1014.9
02:45 11.2 10.6 96 262 1.4 2.8 1014.8
02:56 11.2 10.7 97 270 1.4 2.5 1014.8
03:03 11.2 10.7 97 270 1.4 2.2 1014.8
03:15 11.2 10.7 97 288 1.4 2.8 1014.9
03:26 11.2 10.7 97 295 1.1 2.2 1014.7
03:36 11.2 10.6 96 304 1.1 2.2 1014.7
03:46 11.1 10.5 96 242 0.8 1.7 1014.7
03:56 11.1 10.5 96 210 0.8 2.2 1014.7
04:07 11 10.4 96 170 1.1 1.9 1014.6
04:17 10.9 10.3 96 235 0.8 1.7 1014.6
04:27 10.8 10 95 225 0.8 2.5 1014.6
04:36 10.7 9.9 95 251 1.1 1.9 1014.5
04:47 10.6 9.8 95 229 1.1 1.9 1014.5
04:57 10.6 10 96 249 1.1 2.2 1014.4
05:07 10.6 10 96 239 1.1 2.2 1014.5
05:16 10.6 10 96 240 1.1 2.2 1014.5
05:26 10.6 10 96 260 1.1 2.2 1014.5
05:37 10.6 9.8 95 244 1.1 2.8 1014.3
05:47 10.5 9.7 95 263 1.4 2.2 1014.1
05:58 10.4 9.6 95 289 1.7 2.8 1014.1
06:01 10.4 9.6 95 318 1.9 3.1 1014.3
06:17 10.3 9.5 95 325 1.9 3.1 1014.1
06:23 10.3 9.5 95 301 1.4 2.5 1014.1
06:38 10.2 9.4 95 320 1.7 2.5 1014.1
06:48 10.2 9.4 95 302 1.4 2.5 1014.1
06:57 10.1 9.5 96 309 1.4 2.8 1014.3
07:08 10.1 9.5 96 215 1.1 2.2 1014.3
07:18 10 9.2 95 229 1.1 1.9 1014.3
07:28 10 9.2 95 220 1.1 2.8 1014.4
07:38 9.8 8.9 94 330 1.4 2.8 1014.4
07:48 9.6 8.8 95 322 1.1 2.8 1014.4
07:58 9.5 8.7 95 245 1.1 2.5 1014.4
08:07 9.5 8.7 95 218 1.1 2.2 1014.4
08:19 9.5 8.7 95 229 1.1 2.8 1014.3
08:28 9.5 8.7 95 296 1.4 3.1 1014.3
08:38 9.5 8.7 95 292 1.1 2.5 1014.4
08:49 9.5 8.7 95 319 0.8 1.9 1014.5
08:59 9.6 9 96 270 0.6 1.7 1014.4
09:09 9.6 9 96 90 0.8 2.2 1014.3
09:18 9.7 9.1 96 90 0.8 2.2 1014.4
09:29 9.7 8.9 95 135 1.1 2.5 1014.5
09:39 9.8 9 95 161 1.1 2.5 1014.5
09:49 9.9 9 94 188 1.1 2.2 1014.7
09:59 10 9.1 94 201 1.4 2.5 1014.8
10:09 10.1 9 93 214 2.8 5 1014.8
10:18 10.2 9.1 93 220 3.1 4.7 1014.9
10:26 10.2 9 92 232 3.1 4.4 1015
10:40 10.2 9 92 232 3.1 5 1015
10:50 10.3 9.1 92 238 3.9 5.8 1015.1
10:58 10.3 9.1 92 239 4.4 6.7 1015.1
11:09 10.3 8.9 91 237 4.2 6.4 1015.1
11:20 10.3 8.7 90 235 3.9 5.6 1015.1
11:30 10.4 8.8 90 235 4.4 6.1 1015.1
11:40 10.4 8.8 90 232 4.7 6.7 1015.2
11:50 10.4 8.7 89 236 5.3 7.5 1015
12:00 10.5 8.8 89 236 5.3 8.1 1015
12:10 10.5 8.6 88 234 5 7.8 1015.1
12:20 10.5 8.6 88 244 4.2 7.5 1015
12:30 10.6 8.5 87 260 3.6 9.4 1015
12:40 10.6 8.5 87 266 2.8 7.2 1014.9
12:50 10.7 8.6 87 264 3.3 6.4 1014.9
13:01 10.7 8.5 86 245 3.3 9.4 1014.9
13:11 10.7 8.5 86 238 5.3 9.2 1014.9
13:20 10.8 8.4 85 238 5.8 9.2 1014.9
13:30 10.8 8.4 85 237 5.3 8.3 1014.8
13:41 10.8 8.4 85 238 5.3 9.2 1014.8
13:51 10.8 8.4 85 232 5 7.5 1014.7
14:01 10.8 8.4 85 233 4.4 6.1 1014.8
14:11 10.7 8.1 84 240 3.3 5.3 1014.8
14:20 10.7 8.1 84 233 3.9 5.6 1014.8
14:30 10.7 8.3 85 239 3.1 4.4 1014.7
14:41 10.7 8.1 84 217 2.8 4.4 1014.7
14:52 10.6 8 84 199 2.2 3.3 1014.7
15:01 10.6 8 84 204 2.2 3.3 1014.6
15:11 10.6 7.8 83 178 1.9 3.6 1014.5
15:22 10.5 7.7 83 163 1.4 2.5 1014.6
15:32 10.4 7.6 83 165 1.4 2.5 1014.5
15:41 10.4 7.5 82 171 1.4 3.6 1014.5
15:51 10.4 7.5 82 206 1.1 2.2 1014.6
16:02 10.4 7.5 82 201 1.7 2.8 1014.5
16:12 10.4 7.5 82 190 1.1 2.2 1014.4
16:21 10.4 7.6 83 195 0.8 1.9 1014.4
16:32 10.4 7.6 83 207 1.4 1.9 1014.5
16:42 10.5 7.7 83 213 1.1 2.2 1014.6
16:52 10.5 7.7 83 187 0.8 1.4 1014.6
17:02 10.5 7.7 83 149 1.1 2.2 1014.6
17:13 10.5 7.7 83 171 0.6 1.7 1014.6
17:22 10.5 7.7 83 170 0.8 1.9 1014.5
17:32 10.5 7.7 83 131 0.8 1.7 1014.5
17:42 10.5 7.7 83 90 0.6 1.4 1014.6
17:53 10.4 7.6 83 23 0.6 1.1 1014.5
18:03 10.4 7.6 83 113 0.6 1.4 1014.5
18:12 10.4 7.8 84 357 1.1 1.7 1014.6
18:23 10.3 7.7 84 353 1.4 2.2 1014.5
18:33 10.3 7.9 85 351 1.1 2.2 1014.5
18:43 10.3 7.9 85 225 0.8 1.9 1014.6
18:53 10.3 7.9 85 232 0.8 1.9 1014.7
19:03 10.3 7.9 85 223 0.8 2.5 1014.8
19:13 10.3 8.1 86 238 1.1 2.8 1014.8
19:23 10.3 8.2 87 246 1.1 2.5 1014.8
19:34 10.2 8.3 88 248 1.4 2.5 1014.9
19:44 10.2 8.1 87 258 1.4 2.5 1015
19:53 10.2 8.3 88 253 1.4 2.5 1015.1
20:04 10.2 8.3 88 246 1.1 2.2 1015.1
20:14 10.1 8.4 89 295 1.7 3.1 1015.2
20:24 10.1 8.5 90 257 1.7 2.5 1015.3
20:34 10 8.4 90 270 1.4 2.8 1015.3
20:44 9.9 8.3 90 263 1.7 2.5 1015.4
20:54 9.9 8.5 91 265 1.7 2.5 1015.4
21:04 9.8 8.4 91 262 1.4 2.5 1015.4
21:14 9.8 8.4 91 258 1.7 2.5 1015.4
21:25 9.8 8.4 91 260 1.7 2.5 1015.5
21:34 9.8 8.4 91 270 1.4 2.8 1015.6
21:44 9.8 8.4 91 263 1.4 2.5 1015.6
21:55 9.8 8.4 91 261 1.4 2.5 1015.6
22:05 9.7 8.5 92 264 1.4 2.8 1015.6
22:14 9.7 8.5 92 270 1.4 2.8 1015.6
22:25 9.7 8.6 93 270 1.4 2.5 1015.7
22:32 9.6 8.4 92 284 1.4 3.1 1015.7
22:45 9.6 8.5 93 270 1.4 2.8 1015.7
22:55 9.6 8.5 93 270 1.1 2.8 1015.8
23:05 9.6 8.5 93 270 1.1 2.5 1015.7
23:15 9.6 8.5 93 270 1.1 2.5 1015.8
23:25 9.6 8.5 93 270 1.1 2.5 1015.8
23:35 9.6 8.5 93 270 1.1 1.7 1015.7
23:46 9.5 8.6 94 270 1.1 2.5 1015.8
23:56 9.6 8.7 94 285 1.1 2.5 1015.8

ESTATÍSTICAS DO DIA

2021-09-19
TEMPERATURA
MÉDIA
10.4
MÁXIMO
11.6
00:05
MÍNIMO
9.5
07:58
PRESSÃO
MÉDIA
1014.8
MÁXIMO
1015.8
22:55
MÍNIMO
1014.1
05:47
PONTO DE ORVALHO
MÉDIA
9.0
MÁXIMO
11.0
00:05
MÍNIMO
7.5
15:41
UMIDADE
MÉDIA
91
MÁXIMO
97
00:45
MÍNIMO
82
15:41
VELOCIDADE DOS VENTOS
MÉDIA
1.8
MÁXIMO
5.8
13:20
WIND GUST
MÉDIA
3.2
MÁXIMO
9.4
12:30
DIREÇÃO DOS VENTOS
PREDOMINANTE
SO
38.5%
N
2.1
NE
0.7
E
2.1
SE
2.8
S
11.2
SO
38.5
O
32.9
NO
9.8
TEMPERATURA (°C)
MÍNIMO
9.5
MÁXIMO
11.6
MÉDIA
10.4
PRESSÃO (hpa)
MÍNIMO
1014.1
MÁXIMO
1015.8
MÉDIA
1014.8
DEVICE